Time;durP1;ratioP1;P1;durP2;ratioP2;P2;SDS_P1;SDS_P2;PMS_P1;PMS_P2;Temp;Humidity;BMP_temperature;BMP_pressure;BME280_temperature;BME280_humidity;BME280_pressure;Samples;Min_cycle;Max_cycle;Signal;HPM_P1;HPM_P2
2022/10/30 00:00:42;;;;;;;14.57;7.70;;;;;;;13.12;100.00;101540.59;5111347;28;20507;-56
2022/10/30 00:03:11;;;;;;;17.73;8.43;;;;;;;13.07;100.00;101531.28;5112654;28;20791;-56
2022/10/30 00:05:43;;;;;;;14.60;7.85;;;;;;;13.04;100.00;101542.88;5108635;28;20054;-56
2022/10/30 00:08:13;;;;;;;12.83;7.00;;;;;;;13.06;100.00;101538.38;5110260;28;20116;-56
2022/10/30 00:10:41;;;;;;;16.75;8.18;;;;;;;13.02;100.00;101534.22;5109223;27;20505;-56
2022/10/30 00:13:11;;;;;;;15.10;7.82;;;;;;;12.99;100.00;101537.91;5109837;28;20401;-54
2022/10/30 00:15:39;;;;;;;15.13;6.97;;;;;;;12.96;100.00;101537.25;5111842;28;20039;-56
2022/10/30 00:18:08;;;;;;;15.00;7.53;;;;;;;12.92;100.00;101541.88;5111969;28;20133;-58
2022/10/30 00:20:37;;;;;;;17.38;7.85;;;;;;;12.90;100.00;101540.28;5108461;28;20765;-57
2022/10/30 00:23:05;;;;;;;13.98;7.05;;;;;;;12.85;100.00;101543.22;5112007;28;20073;-57
2022/10/30 00:25:34;;;;;;;15.65;7.00;;;;;;;12.83;100.00;101535.41;5108879;28;20071;-56
2022/10/30 00:28:03;;;;;;;12.80;7.47;;;;;;;12.79;100.00;101535.72;5110387;28;20059;-57
2022/10/30 00:30:33;;;;;;;15.77;7.15;;;;;;;12.79;100.00;101538.34;5111497;28;20047;-57
2022/10/30 00:33:02;;;;;;;13.52;7.43;;;;;;;12.75;100.00;101528.91;5113468;28;20076;-57
2022/10/30 00:35:31;;;;;;;15.82;7.25;;;;;;;12.70;100.00;101529.19;5113391;28;20052;-57
2022/10/30 00:38:00;;;;;;;14.18;7.40;;;;;;;12.68;100.00;101531.09;5109816;28;20122;-57
2022/10/30 00:40:30;;;;;;;12.13;7.07;;;;;;;12.65;100.00;101532.16;5108813;28;20417;-57
2022/10/30 00:42:58;;;;;;;17.00;7.25;;;;;;;12.63;100.00;101527.91;5108602;28;20051;-57
2022/10/30 00:45:26;;;;;;;14.43;7.47;;;;;;;12.56;100.00;101532.72;5109435;28;20067;-57
2022/10/30 00:47:58;;;;;;;15.88;7.75;;;;;;;12.50;100.00;101530.44;5109776;28;20448;-56
2022/10/30 00:50:30;;;;;;;15.63;7.30;;;;;;;12.46;100.00;101523.66;5111752;28;20533;-57
2022/10/30 00:53:03;;;;;;;15.32;7.50;;;;;;;12.44;100.00;101528.22;5109829;28;20094;-57
2022/10/30 00:55:33;;;;;;;;;;;;;;;12.45;100.00;101524.63;5108920;28;20142;-57
2022/10/30 00:58:06;;;;;;;13.90;7.13;;;;;;;12.41;100.00;101531.03;5109552;28;20354;-57
2022/10/30 01:00:37;;;;;;;14.38;7.70;;;;;;;12.38;100.00;101526.81;5108296;28;20050;-56
2022/10/30 01:03:06;;;;;;;16.75;7.60;;;;;;;12.37;100.00;101529.53;5109245;28;20408;-56
2022/10/30 01:05:36;;;;;;;16.60;8.63;;;;;;;12.36;100.00;101525.19;5108846;28;20050;-54
2022/10/30 01:08:06;;;;;;;17.10;8.40;;;;;;;12.37;100.00;101524.25;5109559;28;20109;-56
2022/10/30 01:10:34;;;;;;;16.42;7.88;;;;;;;12.36;100.00;101533.13;5107875;28;20108;-53
2022/10/30 01:13:02;;;;;;;15.80;8.05;;;;;;;12.35;100.00;101529.59;5112070;28;20355;-56
2022/10/30 01:15:35;;;;;;;17.95;8.43;;;;;;;12.28;100.00;101523.84;5109038;28;20478;-52
2022/10/30 01:18:14;;;;;;;18.05;7.95;;;;;;;12.27;100.00;101530.09;5109410;28;20467;-51
2022/10/30 01:21:23;;;;;;;18.20;7.57;;;;;;;12.22;100.00;101524.25;5109484;28;20078;-51
2022/10/30 01:24:09;;;;;;;13.10;6.90;;;;;;;12.24;100.00;101532.91;5103149;28;20086;-50
2022/10/30 01:26:48;;;;;;;15.82;7.55;;;;;;;12.17;100.00;101548.28;5108728;28;20082;-49
2022/10/30 01:29:32;;;;;;;18.50;7.97;;;;;;;12.13;100.00;101541.50;5110926;28;20410;-51
2022/10/30 01:32:18;;;;;;;16.92;7.75;;;;;;;12.13;100.00;101538.88;5112506;28;20126;-52
2022/10/30 01:34:55;;;;;;;16.65;7.97;;;;;;;12.13;100.00;101536.22;5112622;28;20074;-53
2022/10/30 01:37:32;;;;;;;15.95;7.72;;;;;;;12.07;100.00;101538.38;5112663;28;20051;-50
2022/10/30 01:40:08;;;;;;;14.50;7.50;;;;;;;12.04;100.00;101541.19;5112622;28;20054;-53
2022/10/30 01:42:46;;;;;;;17.75;7.60;;;;;;;12.04;100.00;101544.69;5111928;28;20096;-54
2022/10/30 01:45:19;;;;;;;19.10;7.85;;;;;;;11.98;100.00;101551.19;5109095;28;20048;-56
2022/10/30 01:47:59;;;;;;;14.52;7.07;;;;;;;12.02;100.00;101543.06;5109073;28;20064;-55
2022/10/30 01:50:39;;;;;;;15.68;8.00;;;;;;;11.94;100.00;101560.22;5108267;28;20043;-56
2022/10/30 01:53:16;;;;;;;15.27;7.45;;;;;;;11.91;100.00;101552.44;5109215;28;20039;-56
2022/10/30 01:55:55;;;;;;;15.45;8.10;;;;;;;11.89;100.00;101556.09;5109389;28;20379;-56
2022/10/30 01:58:31;;;;;;;16.52;7.88;;;;;;;11.90;100.00;101550.75;5112585;28;20081;-57
2022/10/30 02:01:00;;;;;;;15.05;7.93;;;;;;;11.85;100.00;101547.53;5113407;28;20108;-56
2022/10/30 02:03:29;;;;;;;19.55;8.63;;;;;;;11.81;100.00;101546.03;5114969;27;20371;-57
2022/10/30 02:05:57;;;;;;;16.15;8.63;;;;;;;11.80;100.00;101544.31;5112791;28;20386;-57
2022/10/30 02:08:25;;;;;;;18.98;8.75;;;;;;;11.78;100.00;101549.69;5114256;28;20063;-57
2022/10/30 02:10:55;;;;;;;15.23;7.95;;;;;;;11.79;100.00;101551.38;5114656;28;20051;-57
2022/10/30 02:13:24;;;;;;;18.88;7.88;;;;;;;11.77;100.00;101547.97;5113151;28;20577;-53
2022/10/30 02:15:52;;;;;;;18.02;8.27;;;;;;;11.73;100.00;101546.47;5111826;28;20058;-52
2022/10/30 02:18:20;;;;;;;17.05;8.00;;;;;;;11.71;100.00;101547.50;5112784;28;20108;-51
2022/10/30 02:20:49;;;;;;;15.40;7.28;;;;;;;11.69;100.00;101547.59;5115404;28;20078;-51
2022/10/30 02:23:19;;;;;;;14.98;7.85;;;;;;;11.65;100.00;101548.69;5115615;28;20555;-51
2022/10/30 02:25:47;;;;;;;24.52;8.38;;;;;;;11.63;100.00;101548.81;5115917;28;20092;-51
2022/10/30 02:28:15;;;;;;;16.17;8.57;;;;;;;11.59;100.00;101549.91;5112219;28;20078;-54
2022/10/30 02:30:44;;;;;;;13.70;7.90;;;;;;;11.58;100.00;101555.28;5112899;28;20051;-53
2022/10/30 02:33:12;;;;;;;14.35;8.00;;;;;;;11.59;100.00;101560.44;5115815;28;20047;-52
2022/10/30 02:35:40;;;;;;;15.02;8.75;;;;;;;11.55;100.00;101561.56;5113508;28;20359;-52
2022/10/30 02:38:09;;;;;;;18.45;7.90;;;;;;;11.55;100.00;101558.06;5112439;27;20048;-52
2022/10/30 02:40:37;;;;;;;15.80;7.72;;;;;;;11.52;100.00;101555.63;5114735;28;20036;-52
2022/10/30 02:43:05;;;;;;;15.82;7.53;;;;;;;11.48;100.00;101550.53;5111916;28;20543;-52
2022/10/30 02:45:33;;;;;;;17.75;7.57;;;;;;;11.49;100.00;101554.00;5111918;28;20052;-53
2022/10/30 02:48:02;;;;;;;15.18;7.63;;;;;;;11.50;100.00;101553.06;5112074;28;20051;-53
2022/10/30 02:50:30;;;;;;;14.50;7.40;;;;;;;11.49;100.00;101551.38;5113819;28;20505;-52
2022/10/30 02:52:59;;;;;;;19.60;8.18;;;;;;;11.46;100.00;101551.56;5115430;28;20043;-53
2022/10/30 02:55:29;;;;;;;13.65;7.78;;;;;;;11.42;100.00;101558.78;5114807;28;20180;-52
2022/10/30 02:57:57;;;;;;;15.57;7.47;;;;;;;11.41;100.00;101561.50;5111812;28;20544;-53
2022/10/30 03:00:25;;;;;;;13.10;7.55;;;;;;;11.40;100.00;101567.69;5112988;28;20058;-53
2022/10/30 03:02:55;;;;;;;12.23;7.30;;;;;;;11.43;100.00;101570.19;5115048;28;20452;-53
2022/10/30 03:05:24;;;;;;;15.00;8.18;;;;;;;11.38;100.00;101578.31;5115157;28;20129;-50
2022/10/30 03:07:54;;;;;;;14.02;7.60;;;;;;;11.36;100.00;101574.06;5111935;28;20047;-51
2022/10/30 03:10:23;;;;;;;13.18;7.35;;;;;;;11.33;100.00;101570.69;5111317;28;20040;-53
2022/10/30 03:12:53;;;;;;;13.55;7.45;;;;;;;11.31;100.00;101564.66;5113605;28;20096;-51
2022/10/30 03:15:21;;;;;;;13.85;6.93;;;;;;;11.27;100.00;101567.56;5114718;28;20052;-53
2022/10/30 03:17:51;;;;;;;16.05;7.35;;;;;;;11.29;100.00;101579.72;5114785;28;20043;-50
2022/10/30 03:20:20;;;;;;;15.52;7.50;;;;;;;11.30;100.00;101580.53;5114600;28;20043;-52
2022/10/30 03:22:48;;;;;;;14.80;7.53;;;;;;;11.25;100.00;101575.56;5114806;28;20104;-53
2022/10/30 03:25:22;;;;;;;14.75;7.68;;;;;;;11.24;100.00;101578.28;5114866;28;20493;-51
2022/10/30 03:27:50;;;;;;;16.45;8.30;;;;;;;11.21;100.00;101574.03;5114466;28;20092;-52
2022/10/30 03:30:20;;;;;;;17.85;7.75;;;;;;;11.21;100.00;101583.69;5114681;28;20122;-52
2022/10/30 03:32:48;;;;;;;16.00;7.78;;;;;;;11.20;100.00;101572.31;5111132;28;20109;-53
2022/10/30 03:35:16;;;;;;;16.45;7.88;;;;;;;11.22;100.00;101575.72;5111242;28;20050;-53
2022/10/30 03:37:44;;;;;;;17.35;8.02;;;;;;;11.19;100.00;101575.88;5114518;28;20379;-53
2022/10/30 03:40:12;;;;;;;19.45;7.80;;;;;;;11.11;100.00;101576.34;5114244;28;20044;-54
2022/10/30 03:42:43;;;;;;;14.27;7.82;;;;;;;11.12;100.00;101564.84;5114398;28;20071;-55
2022/10/30 03:45:11;;;;;;;18.95;8.38;;;;;;;11.07;100.00;101566.03;5114382;28;20077;-56
2022/10/30 03:47:41;;;;;;;13.50;7.80;;;;;;;11.09;100.00;101562.38;5113828;28;20082;-56
2022/10/30 03:50:09;;;;;;;13.60;7.03;;;;;;;11.12;100.00;101569.28;5113060;28;20054;-56
2022/10/30 03:52:37;;;;;;;15.25;7.40;;;;;;;11.12;100.00;101570.09;5111069;28;20104;-53
2022/10/30 03:55:07;;;;;;;13.82;7.70;;;;;;;11.05;100.00;101570.56;5112115;28;20051;-51
2022/10/30 03:57:37;;;;;;;12.05;7.32;;;;;;;11.06;100.00;101569.63;5110844;28;20455;-55
2022/10/30 04:00:06;;;;;;;16.95;7.88;;;;;;;11.01;100.00;101563.75;5111123;28;20055;-54
2022/10/30 04:02:34;;;;;;;16.77;8.05;;;;;;;10.99;100.00;101569.94;5111167;28;20047;-55
2022/10/30 04:05:05;;;;;;;14.85;7.90;;;;;;;10.98;100.00;101560.34;5110606;28;20040;-50
2022/10/30 04:07:33;;;;;;;12.77;7.80;;;;;;;11.01;100.00;101566.41;5110463;28;20104;-49
2022/10/30 04:10:01;;;;;;;15.52;7.70;;;;;;;10.95;100.00;101568.44;5109534;28;20036;-49
2022/10/30 04:12:29;;;;;;;12.02;7.40;;;;;;;10.93;100.00;101570.28;5109411;28;20127;-52
2022/10/30 04:14:57;;;;;;;18.52;7.88;;;;;;;10.91;100.00;101577.44;5113405;28;20052;-51
2022/10/30 04:17:25;;;;;;;15.07;8.73;;;;;;;10.92;100.00;101579.13;5113442;28;20474;-52
2022/10/30 04:19:53;;;;;;;13.50;7.78;;;;;;;10.89;100.00;101579.28;5112767;28;20454;-51
2022/10/30 04:22:23;;;;;;;16.50;8.70;;;;;;;10.89;100.00;101583.69;5111345;28;20054;-50
2022/10/30 04:24:52;;;;;;;15.82;8.63;;;;;;;10.90;100.00;101580.97;5109256;28;20069;-52
2022/10/30 04:27:20;;;;;;;18.92;7.20;;;;;;;10.93;100.00;101580.81;5113400;28;20501;-52
2022/10/30 04:29:51;;;;;;;15.52;8.05;;;;;;;10.89;100.00;101574.00;5112150;28;20051;-52
2022/10/30 04:32:19;;;;;;;14.60;7.93;;;;;;;10.90;100.00;101582.78;5109907;27;20043;-52
2022/10/30 04:34:52;;;;;;;17.02;8.07;;;;;;;10.88;100.00;101590.75;5111145;28;20063;-49
2022/10/30 04:37:20;;;;;;;14.10;7.80;;;;;;;10.79;100.00;101594.72;5111958;28;20055;-52
2022/10/30 04:39:49;;;;;;;13.23;7.35;;;;;;;10.79;100.00;101593.88;5113273;28;20035;-55
2022/10/30 04:42:17;;;;;;;13.75;8.00;;;;;;;10.76;100.00;101588.78;5112133;28;20051;-55
2022/10/30 04:44:45;;;;;;;14.63;8.05;;;;;;;10.82;100.00;101593.72;5113071;28;20040;-55
2022/10/30 04:47:14;;;;;;;16.73;7.93;;;;;;;10.77;100.00;101595.72;5110547;28;20044;-55
2022/10/30 04:49:42;;;;;;;15.85;7.82;;;;;;;10.74;100.00;101588.00;5108406;28;20133;-55
2022/10/30 04:52:11;;;;;;;15.05;8.25;;;;;;;10.76;100.00;101584.38;5109382;28;20504;-55
2022/10/30 04:54:39;;;;;;;14.77;8.57;;;;;;;10.78;100.00;101586.91;5108172;28;20096;-56
2022/10/30 04:57:09;;;;;;;15.32;7.70;;;;;;;10.74;100.00;101578.31;5111599;28;20031;-56
2022/10/30 04:59:37;;;;;;;15.52;8.18;;;;;;;10.73;100.00;101575.78;5110524;28;20529;-50
2022/10/30 05:02:05;;;;;;;15.15;8.15;;;;;;;10.71;100.00;101577.66;5109950;28;20055;-53
2022/10/30 05:04:35;;;;;;;14.15;8.02;;;;;;;10.71;100.00;101575.88;5109133;27;20592;-55
2022/10/30 05:07:04;;;;;;;17.30;8.50;;;;;;;10.71;100.00;101573.25;5112539;28;20055;-56
2022/10/30 05:09:32;;;;;;;14.98;8.15;;;;;;;10.72;100.00;101576.75;5107995;28;20065;-56
2022/10/30 05:12:00;;;;;;;16.30;7.95;;;;;;;10.68;100.00;101573.41;5109949;28;20047;-55
2022/10/30 05:14:30;;;;;;;15.80;8.07;;;;;;;10.69;100.00;101574.25;5108656;28;20581;-56
2022/10/30 05:16:59;;;;;;;17.23;8.07;;;;;;;10.72;100.00;101571.47;5109247;28;20054;-56
2022/10/30 05:19:27;;;;;;;14.55;8.25;;;;;;;10.65;100.00;101558.66;5108567;28;20581;-56
2022/10/30 05:21:55;;;;;;;16.63;8.82;;;;;;;10.68;100.00;101560.25;5109103;28;20048;-49
2022/10/30 05:24:23;;;;;;;16.70;8.23;;;;;;;10.61;100.00;101562.38;5108005;28;20472;-52
2022/10/30 05:26:51;;;;;;;20.30;8.82;;;;;;;10.69;100.00;101561.09;5111655;28;20048;-48
2022/10/30 05:29:19;;;;;;;17.45;8.82;;;;;;;10.61;100.00;101558.91;5112667;28;20047;-51
2022/10/30 05:31:49;;;;;;;20.70;9.38;;;;;;;10.59;100.00;101555.50;5116916;28;20035;-52
2022/10/30 05:34:17;;;;;;;18.95;8.63;;;;;;;10.60;100.00;101552.78;5116644;28;20043;-55
2022/10/30 05:36:45;;;;;;;15.15;7.78;;;;;;;10.62;100.00;101550.94;5116918;28;20085;-48
2022/10/30 05:39:13;;;;;;;15.10;8.00;;;;;;;10.58;100.00;101559.03;5116852;28;20072;-54
2022/10/30 05:41:41;;;;;;;15.70;7.97;;;;;;;10.57;100.00;101565.25;5116541;28;20058;-51
2022/10/30 05:44:09;;;;;;;13.05;8.35;;;;;;;10.52;100.00;101565.50;5113324;28;20386;-51
2022/10/30 05:46:37;;;;;;;13.90;7.47;;;;;;;10.51;100.00;101569.03;5114655;28;20043;-51
2022/10/30 05:49:07;;;;;;;19.35;8.60;;;;;;;10.55;100.00;101561.84;5116601;28;20043;-48
2022/10/30 05:51:35;;;;;;;14.98;7.85;;;;;;;10.51;100.00;101560.31;5116665;28;20092;-50
2022/10/30 05:54:07;;;;;;;17.23;8.77;;;;;;;10.52;100.00;101559.38;5116501;28;20047;-51
2022/10/30 05:56:36;;;;;;;13.65;7.93;;;;;;;10.51;100.00;101563.78;5116509;28;20040;-50
2022/10/30 05:59:04;;;;;;;15.93;8.18;;;;;;;10.49;100.00;101565.66;5116362;27;20052;-50
2022/10/30 06:01:32;;;;;;;17.45;8.35;;;;;;;10.54;100.00;101573.28;5116474;28;20039;-48
2022/10/30 06:04:00;;;;;;;17.15;8.02;;;;;;;10.49;100.00;101570.91;5116190;28;20051;-52
2022/10/30 06:06:29;;;;;;;15.25;7.95;;;;;;;10.51;100.00;101563.78;5116301;28;20045;-49
2022/10/30 06:08:57;;;;;;;15.23;8.25;;;;;;;10.42;100.00;101573.03;5114691;28;20391;-52
2022/10/30 06:11:26;;;;;;;14.45;8.15;;;;;;;10.43;100.00;101571.22;5116382;28;20055;-52
2022/10/30 06:13:54;;;;;;;16.83;8.65;;;;;;;10.39;100.00;101577.59;5116082;28;20409;-51
2022/10/30 06:16:22;;;;;;;15.63;8.13;;;;;;;10.41;100.00;101584.47;5113946;28;20055;-50
2022/10/30 06:18:50;;;;;;;15.60;7.93;;;;;;;10.40;100.00;101598.56;5111919;28;20146;-52
2022/10/30 06:21:18;;;;;;;19.23;9.25;;;;;;;10.41;100.00;101596.78;5112815;28;20493;-50
2022/10/30 06:23:49;;;;;;;15.93;7.93;;;;;;;10.37;100.00;101589.97;5112748;28;20630;-52
2022/10/30 06:26:17;;;;;;;15.27;8.48;;;;;;;10.32;100.00;101584.91;5115950;28;20489;-53
2022/10/30 06:28:45;;;;;;;19.67;11.38;;;;;;;10.32;100.00;101583.16;5115853;28;20047;-53
2022/10/30 06:31:13;;;;;;;19.15;11.95;;;;;;;10.30;100.00;101587.63;5115851;28;20050;-49
2022/10/30 06:33:41;;;;;;;25.80;15.00;;;;;;;10.32;100.00;101593.66;5115306;28;20048;-49
2022/10/30 06:36:09;;;;;;;23.13;14.95;;;;;;;10.30;100.00;101592.03;5112608;28;20097;-50
2022/10/30 06:38:37;;;;;;;14.40;9.90;;;;;;;10.34;100.00;101585.69;5112778;28;20130;-53
2022/10/30 06:41:07;;;;;;;16.33;9.95;;;;;;;10.32;100.00;101588.41;5115459;28;20035;-49
2022/10/30 06:43:35;;;;;;;15.32;8.88;;;;;;;10.33;100.00;101586.63;5114170;28;20525;-49
2022/10/30 06:46:06;;;;;;;16.27;9.20;;;;;;;10.30;100.00;101590.25;5115323;28;20479;-50
2022/10/30 06:48:39;;;;;;;15.50;9.00;;;;;;;10.24;100.00;101594.97;5115822;28;20069;-53
2022/10/30 06:51:07;;;;;;;15.65;8.52;;;;;;;10.26;100.00;101596.59;5115573;28;20039;-52
2022/10/30 06:53:35;;;;;;;15.55;8.60;;;;;;;10.28;100.00;101588.63;5112989;28;20048;-51
2022/10/30 06:56:04;;;;;;;13.90;9.40;;;;;;;10.25;100.00;101581.78;5112150;28;20047;-54
2022/10/30 06:58:37;;;;;;;16.48;8.70;;;;;;;10.28;100.00;101573.72;5111353;28;20075;-54
2022/10/30 07:01:06;;;;;;;14.43;8.68;;;;;;;10.29;100.00;101575.44;5114825;28;20055;-53
2022/10/30 07:03:34;;;;;;;17.77;8.88;;;;;;;10.36;100.00;101573.38;5115136;28;20083;-52
2022/10/30 07:06:03;;;;;;;12.93;7.93;;;;;;;10.41;100.00;101567.84;5114089;28;20100;-49
2022/10/30 07:08:31;;;;;;;15.20;8.93;;;;;;;10.42;100.00;101565.13;5110814;28;20092;-51
2022/10/30 07:10:59;;;;;;;19.80;9.25;;;;;;;10.54;100.00;101566.28;5112481;27;20502;-52
2022/10/30 07:13:27;;;;;;;14.40;9.18;;;;;;;10.58;100.00;101559.91;5114810;28;20077;-50
2022/10/30 07:15:58;;;;;;;17.42;9.40;;;;;;;10.65;100.00;101560.44;5114956;27;20032;-50
2022/10/30 07:18:28;;;;;;;;;;;;;;;10.73;100.00;101560.00;5115626;27;20040;-51
2022/10/30 07:20:56;;;;;;;14.15;8.75;;;;;;;10.83;100.00;101563.84;5114810;28;19926;-51
2022/10/30 07:23:25;;;;;;;19.00;9.60;;;;;;;11.01;100.00;101567.22;5111911;28;20093;-50
2022/10/30 07:25:53;;;;;;;17.88;9.55;;;;;;;11.21;100.00;101575.78;5111048;28;20537;-53
2022/10/30 07:28:27;;;;;;;18.13;9.10;;;;;;;11.25;100.00;101578.19;5114500;28;20480;-49
2022/10/30 07:30:58;;;;;;;17.50;9.88;;;;;;;11.48;100.00;101579.50;5114510;28;20039;-52
2022/10/30 07:33:26;;;;;;;17.75;9.32;;;;;;;11.63;100.00;101580.41;5113377;28;20043;-52
2022/10/30 07:35:54;;;;;;;16.50;8.32;;;;;;;11.77;100.00;101576.13;5113333;28;20078;-49
2022/10/30 07:38:22;;;;;;;16.35;9.38;;;;;;;11.91;100.00;101572.69;5114671;28;20051;-49
2022/10/30 07:40:52;;;;;;;15.38;9.65;;;;;;;11.98;100.00;101574.03;5114367;28;20054;-50
2022/10/30 07:43:20;;;;;;;17.45;11.10;;;;;;;12.12;100.00;101567.94;5114639;28;20036;-52
2022/10/30 07:45:48;;;;;;;19.88;10.90;;;;;;;12.30;100.00;101561.56;5114516;28;20034;-50
2022/10/30 07:48:18;;;;;;;20.05;11.18;;;;;;;12.47;100.00;101559.66;5114364;28;20454;-51
2022/10/30 07:50:46;;;;;;;18.63;10.93;;;;;;;12.63;100.00;101564.84;5114275;28;20125;-51
2022/10/30 07:53:14;;;;;;;21.45;10.90;;;;;;;12.74;100.00;101564.19;5113375;28;20398;-50
2022/10/30 07:55:43;;;;;;;18.00;11.30;;;;;;;12.84;100.00;101567.91;5113463;28;20048;-51
2022/10/30 07:58:11;;;;;;;17.55;10.73;;;;;;;13.01;100.00;101572.97;5112690;28;20120;-52
2022/10/30 08:00:39;;;;;;;18.77;10.63;;;;;;;13.00;100.00;101578.34;5114213;28;20044;-50
2022/10/30 08:03:07;;;;;;;17.95;10.88;;;;;;;12.91;100.00;101574.53;5114247;28;20075;-50
2022/10/30 08:05:36;;;;;;;17.35;11.20;;;;;;;12.91;100.00;101573.66;5113787;28;20053;-51
2022/10/30 08:08:05;;;;;;;16.55;10.38;;;;;;;12.85;100.00;101572.25;5113783;28;20484;-50
2022/10/30 08:10:34;;;;;;;17.92;10.85;;;;;;;12.99;100.00;101572.25;5112489;28;20039;-51
2022/10/30 08:13:03;;;;;;;16.83;11.07;;;;;;;13.17;100.00;101564.91;5110422;28;20104;-51
2022/10/30 08:15:31;;;;;;;13.93;9.93;;;;;;;13.48;100.00;101567.38;5112642;28;20056;-50
2022/10/30 08:18:00;;;;;;;16.48;9.90;;;;;;;13.58;100.00;101571.13;5110901;28;20490;-53
2022/10/30 08:20:28;;;;;;;15.15;9.38;;;;;;;13.56;100.00;101574.81;5110166;28;20402;-53
2022/10/30 08:22:58;;;;;;;17.08;10.30;;;;;;;13.69;100.00;101571.25;5113740;28;20052;-51
2022/10/30 08:25:28;;;;;;;17.60;9.85;;;;;;;13.62;100.00;101572.59;5113545;28;20042;-50
2022/10/30 08:27:58;;;;;;;14.80;9.70;;;;;;;13.67;100.00;101569.66;5111835;28;20035;-53
2022/10/30 08:30:29;;;;;;;16.27;10.77;;;;;;;13.72;100.00;101570.19;5109686;28;20175;-50
2022/10/30 08:32:58;;;;;;;18.38;11.20;;;;;;;13.71;100.00;101562.38;5113438;28;20051;-53
2022/10/30 08:35:28;;;;;;;16.13;10.10;;;;;;;13.75;100.00;101561.22;5113485;28;20452;-53
2022/10/30 08:37:56;;;;;;;15.95;10.20;;;;;;;13.93;100.00;101559.13;5111803;28;20040;-53
2022/10/30 08:40:27;;;;;;;16.58;11.05;;;;;;;14.19;100.00;101574.06;5108497;28;20147;-49
2022/10/30 08:42:57;;;;;;;17.48;11.32;;;;;;;14.13;100.00;101563.03;5112965;28;20051;-53
2022/10/30 08:45:25;;;;;;;17.10;11.63;;;;;;;14.14;100.00;101565.59;5113252;28;20054;-52
2022/10/30 08:47:59;;;;;;;16.52;12.05;;;;;;;14.19;100.00;101552.03;5113196;28;20106;-53
2022/10/30 08:50:29;;;;;;;20.23;11.55;;;;;;;14.35;100.00;101551.81;5113019;28;20198;-53
2022/10/30 08:53:01;;;;;;;21.10;12.40;;;;;;;14.47;100.00;101547.47;5112745;28;20074;-52
2022/10/30 08:55:31;;;;;;;;;;;;;;;14.54;100.00;101538.13;5113631;28;20047;-49
2022/10/30 08:58:00;;;;;;;21.02;12.35;;;;;;;14.61;100.00;101541.19;5112893;28;19924;-54
2022/10/30 09:00:28;;;;;;;19.92;13.02;;;;;;;14.61;100.00;101542.03;5112962;28;20465;-54
2022/10/30 09:02:56;;;;;;;21.55;13.40;;;;;;;14.69;100.00;101533.59;5112921;28;20524;-53
2022/10/30 09:05:25;;;;;;;19.77;13.13;;;;;;;14.76;100.00;101534.81;5112853;28;20036;-54
2022/10/30 09:07:57;;;;;;;22.75;13.00;;;;;;;14.96;100.00;101546.63;5112772;28;20452;-53
2022/10/30 09:10:25;;;;;;;20.65;13.40;;;;;;;14.98;100.00;101551.81;5112184;28;20536;-53
2022/10/30 09:13:01;;;;;;;18.70;12.57;;;;;;;15.06;100.00;101564.50;5112228;28;20052;-54
2022/10/30 09:15:30;;;;;;;21.65;12.57;;;;;;;15.18;100.00;101553.00;5112128;28;20055;-54
2022/10/30 09:18:00;;;;;;;20.90;13.15;;;;;;;15.26;100.00;101555.94;5112987;28;20047;-55
2022/10/30 09:20:30;;;;;;;22.33;14.15;;;;;;;15.32;100.00;101552.81;5113083;28;20053;-54
2022/10/30 09:22:59;;;;;;;20.02;12.18;;;;;;;15.35;100.00;101549.09;5112800;28;20490;-53
2022/10/30 09:25:27;;;;;;;23.63;12.45;;;;;;;15.48;100.00;101549.06;5113064;28;20043;-52
2022/10/30 09:27:55;;;;;;;23.25;12.07;;;;;;;15.59;100.00;101548.25;5112795;28;20486;-53
2022/10/30 09:30:25;;;;;;;23.02;12.77;;;;;;;15.71;100.00;101552.63;5111448;28;20130;-53
2022/10/30 09:32:57;;;;;;;21.95;13.15;;;;;;;15.92;100.00;101554.63;5112914;28;20044;-52
2022/10/30 09:35:26;;;;;;;24.08;13.48;;;;;;;16.10;100.00;101569.13;5112912;28;20135;-53
2022/10/30 09:37:54;;;;;;;22.10;12.65;;;;;;;16.28;100.00;101556.25;5112958;28;20051;-53
2022/10/30 09:40:34;;;;;;;25.10;12.75;;;;;;;16.59;100.00;101556.47;5112893;28;20043;-57
2022/10/30 09:43:11;;;;;;;23.55;12.20;;;;;;;16.93;100.00;101564.41;5110326;28;20043;-52
2022/10/30 09:46:21;;;;;;;20.35;12.23;;;;;;;17.28;100.00;101559.88;5109589;28;20071;-54
2022/10/30 09:49:11;;;;;;;21.40;11.20;;;;;;;17.52;100.00;101554.31;5082780;28;20067;-53
2022/10/30 09:52:04;;;;;;;19.67;11.90;;;;;;;17.84;100.00;101556.91;5112471;28;20078;-54
2022/10/30 09:54:44;;;;;;;20.75;11.45;;;;;;;18.11;100.00;101552.91;5112587;28;20050;-54
2022/10/30 09:57:21;;;;;;;21.35;11.48;;;;;;;18.30;100.00;101548.66;5110582;28;20371;-55
2022/10/30 10:00:01;;;;;;;23.48;12.38;;;;;;;18.37;100.00;101552.47;5109371;28;20394;-55
2022/10/30 10:02:35;;;;;;;22.27;12.10;;;;;;;18.69;100.00;101546.97;5111349;28;20040;-54
2022/10/30 10:05:12;;;;;;;20.83;12.75;;;;;;;18.79;100.00;101540.81;5112449;28;20075;-53
2022/10/30 10:07:45;;;;;;;19.00;11.68;;;;;;;19.12;100.00;101547.66;5112389;28;20085;-53
2022/10/30 10:10:33;;;;;;;22.25;11.52;;;;;;;19.41;100.00;101560.13;5112241;28;20040;-54
2022/10/30 10:13:05;;;;;;;21.25;12.48;;;;;;;19.53;100.00;101560.84;5112380;28;20048;-55
2022/10/30 10:15:40;;;;;;;21.73;12.00;;;;;;;19.69;100.00;101568.28;5112163;28;20398;-55
2022/10/30 10:18:17;;;;;;;19.38;10.88;;;;;;;20.03;100.00;101574.00;5115541;28;20499;-55
2022/10/30 10:20:50;;;;;;;17.67;11.38;;;;;;;20.19;100.00;101567.19;5116040;28;20063;-55
2022/10/30 10:23:19;;;;;;;20.58;11.65;;;;;;;20.32;100.00;101570.38;5112143;27;20087;-56
2022/10/30 10:25:53;;;;;;;19.33;10.82;;;;;;;20.74;100.00;101567.28;5111299;28;20066;-56
2022/10/30 10:28:43;;;;;;;19.15;10.40;;;;;;;20.83;100.00;101567.38;5111862;28;20425;-55
2022/10/30 10:31:24;;;;;;;21.13;10.60;;;;;;;21.22;100.00;101569.78;5114499;28;20047;-57
2022/10/30 10:34:09;;;;;;;17.48;9.95;;;;;;;21.53;100.00;101572.06;5115101;28;20054;-57
2022/10/30 10:36:44;;;;;;;21.60;11.10;;;;;;;21.73;100.00;101573.59;5112287;28;20429;-58
2022/10/30 10:39:29;;;;;;;20.33;10.25;;;;;;;21.93;100.00;101571.53;5110645;28;20070;-58
2022/10/30 10:42:06;;;;;;;17.67;10.10;;;;;;;22.02;100.00;101567.09;5112184;28;20047;-58
2022/10/30 10:44:46;;;;;;;21.90;10.43;;;;;;;21.65;100.00;101565.50;5114510;28;20104;-58
2022/10/30 10:47:25;;;;;;;20.50;9.45;;;;;;;21.44;100.00;101558.59;5111899;27;20360;-58
2022/10/30 10:50:10;;;;;;;22.63;9.88;;;;;;;21.44;100.00;101557.78;5111980;28;20039;-57
2022/10/30 10:52:42;;;;;;;15.57;9.57;;;;;;;21.64;100.00;101563.81;5112182;28;20059;-58
2022/10/30 10:55:16;;;;;;;18.60;10.90;;;;;;;21.73;100.00;101560.22;5115254;28;20059;-58
2022/10/30 10:57:45;;;;;;;17.70;9.68;;;;;;;21.81;100.00;101558.59;5115303;28;20043;-57
2022/10/30 11:00:19;;;;;;;18.13;9.05;;;;;;;21.99;100.00;101559.38;5115156;28;20043;-58
2022/10/30 11:02:54;;;;;;;19.48;9.02;;;;;;;21.80;100.00;101555.09;5114850;28;20056;-58
2022/10/30 11:05:32;;;;;;;16.55;9.05;;;;;;;21.94;100.00;101548.31;5111335;28;20059;-58
2022/10/30 11:08:10;;;;;;;19.38;9.10;;;;;;;21.90;100.00;101544.25;5112217;28;20059;-58
2022/10/30 11:10:38;;;;;;;18.48;8.95;;;;;;;21.95;100.00;101541.94;5114809;28;20595;-57
2022/10/30 11:13:06;;;;;;;16.48;9.05;;;;;;;22.21;100.00;101533.03;5113596;28;20040;-59
2022/10/30 11:15:49;;;;;;;15.15;9.02;;;;;;;22.43;100.00;101534.34;5114639;28;20048;-58
2022/10/30 11:18:18;;;;;;;15.80;8.82;;;;;;;22.56;100.00;101531.22;5113061;28;20047;-59
2022/10/30 11:20:57;;;;;;;17.20;9.15;;;;;;;22.24;100.00;101527.38;5111446;28;20055;-58
2022/10/30 11:23:38;;;;;;;17.75;9.45;;;;;;;22.29;100.00;101525.03;5110243;28;20131;-58